createdAt,value
2019-02-10T00:00:41.032Z,0.0
2019-02-10T00:01:41.261Z,0.0
2019-02-10T00:02:41.220Z,0.0
2019-02-10T00:03:41.153Z,0.0
2019-02-10T00:04:41.103Z,0.0
2019-02-10T00:05:40.703Z,0.0
2019-02-10T00:06:40.966Z,0.0
2019-02-10T00:07:40.710Z,0.0
2019-02-10T00:08:42.859Z,0.0
2019-02-10T00:09:40.985Z,0.0
2019-02-10T00:10:40.774Z,0.0
2019-02-10T00:11:40.975Z,0.0
2019-02-10T00:12:41.110Z,0.0
2019-02-10T00:13:41.004Z,0.0
2019-02-10T00:14:41.207Z,0.0
2019-02-10T00:15:41.110Z,0.0
2019-02-10T00:16:40.815Z,0.0
2019-02-10T00:17:41.250Z,0.0
2019-02-10T00:18:41.376Z,0.0
2019-02-10T00:19:40.894Z,0.0
2019-02-10T00:20:41.681Z,0.0
2019-02-10T00:21:40.722Z,0.0
2019-02-10T00:22:41.881Z,0.0
2019-02-10T00:23:41.079Z,0.0
2019-02-10T00:24:40.990Z,0.0
2019-02-10T00:25:41.448Z,0.0
2019-02-10T00:26:40.844Z,0.0
2019-02-10T00:27:41.043Z,0.0
2019-02-10T00:28:40.920Z,0.0
2019-02-10T00:29:40.979Z,0.0
2019-02-10T00:30:40.932Z,0.0
2019-02-10T00:31:40.993Z,0.0
2019-02-10T00:32:40.811Z,0.0
2019-02-10T00:33:41.031Z,0.0
2019-02-10T00:34:41.926Z,0.0
2019-02-10T00:35:41.119Z,0.0
2019-02-10T00:36:41.385Z,0.0
2019-02-10T00:37:41.502Z,0.0
2019-02-10T00:38:40.961Z,0.0
2019-02-10T00:39:41.444Z,0.0
2019-02-10T00:40:41.230Z,0.0
2019-02-10T00:41:41.156Z,0.0
2019-02-10T00:42:41.018Z,0.0
2019-02-10T00:43:41.071Z,0.0
2019-02-10T00:44:41.114Z,0.0
2019-02-10T00:45:41.206Z,0.0
2019-02-10T00:46:41.602Z,0.0
2019-02-10T00:47:41.386Z,0.0
2019-02-10T00:48:41.023Z,0.0
2019-02-10T00:49:41.258Z,0.0
2019-02-10T00:50:41.234Z,0.0
2019-02-10T00:51:41.251Z,0.0
2019-02-10T00:52:41.666Z,0.0
2019-02-10T00:53:41.431Z,0.0
2019-02-10T00:54:41.812Z,0.0
2019-02-10T00:55:41.084Z,0.0
2019-02-10T00:56:41.164Z,0.0
2019-02-10T00:57:41.406Z,0.0
2019-02-10T00:58:41.098Z,0.0
2019-02-10T00:59:42.065Z,0.0
2019-02-10T01:00:41.338Z,0.0
2019-02-10T01:01:41.008Z,0.0
2019-02-10T01:02:43.008Z,0.0
2019-02-10T01:03:43.096Z,0.0
2019-02-10T01:04:41.783Z,0.0
2019-02-10T01:05:41.612Z,0.0
2019-02-10T01:06:42.778Z,0.0
2019-02-10T01:07:41.095Z,0.0
2019-02-10T01:08:41.901Z,0.0
2019-02-10T01:09:41.179Z,0.0
2019-02-10T01:10:41.251Z,0.0
2019-02-10T01:11:41.468Z,0.0
2019-02-10T01:12:41.053Z,0.0
2019-02-10T01:13:41.239Z,0.0
2019-02-10T01:14:41.221Z,0.0
2019-02-10T01:15:41.620Z,0.0
2019-02-10T01:16:41.260Z,0.0
2019-02-10T01:17:41.001Z,0.0
2019-02-10T01:18:41.006Z,0.0
2019-02-10T01:19:40.846Z,0.0
2019-02-10T01:20:42.177Z,0.0
2019-02-10T01:21:40.949Z,0.0
2019-02-10T01:22:40.916Z,0.0
2019-02-10T01:23:41.284Z,0.0
2019-02-10T01:24:41.077Z,0.0
2019-02-10T01:25:41.882Z,0.0
2019-02-10T01:26:41.116Z,0.0
2019-02-10T01:27:40.964Z,0.0
2019-02-10T01:28:41.418Z,0.0
2019-02-10T01:29:41.449Z,0.0
2019-02-10T01:30:40.992Z,0.0
2019-02-10T01:31:41.293Z,0.0
2019-02-10T01:32:40.932Z,0.0
2019-02-10T01:33:41.026Z,0.0
2019-02-10T01:34:41.090Z,0.0
2019-02-10T01:35:41.266Z,0.0
2019-02-10T01:36:49.031Z,0.0
2019-02-10T01:37:41.380Z,0.0
2019-02-10T01:38:41.027Z,0.0
2019-02-10T01:39:41.135Z,0.0
2019-02-10T01:40:40.891Z,0.0
2019-02-10T01:41:41.007Z,0.0
2019-02-10T01:42:41.335Z,0.0
2019-02-10T01:43:41.139Z,0.0
2019-02-10T01:44:40.896Z,0.0
2019-02-10T01:45:41.413Z,0.0
2019-02-10T01:46:41.328Z,0.0
2019-02-10T01:47:40.917Z,0.0
2019-02-10T01:48:41.422Z,0.0
2019-02-10T01:49:41.704Z,0.0
2019-02-10T01:50:41.942Z,0.0
2019-02-10T01:51:40.886Z,0.0
2019-02-10T01:52:41.082Z,0.0
2019-02-10T01:53:41.105Z,0.0
2019-02-10T01:54:41.919Z,0.0
2019-02-10T01:55:41.074Z,0.0
2019-02-10T01:56:41.027Z,0.0
2019-02-10T01:57:41.152Z,0.0
2019-02-10T01:58:41.505Z,0.0
2019-02-10T01:59:41.748Z,0.0
2019-02-10T02:00:41.059Z,0.0
2019-02-10T02:01:41.113Z,0.0
2019-02-10T02:02:41.088Z,0.0
2019-02-10T02:03:42.105Z,0.0
2019-02-10T02:04:41.082Z,0.0
2019-02-10T02:05:41.093Z,0.0
2019-02-10T02:06:41.165Z,0.0
2019-02-10T02:07:41.189Z,0.0
2019-02-10T02:08:41.036Z,0.0
2019-02-10T02:09:41.261Z,0.0
2019-02-10T02:10:41.505Z,0.0
2019-02-10T02:11:41.170Z,0.0
2019-02-10T02:12:41.038Z,0.0
2019-02-10T02:13:41.185Z,0.0
2019-02-10T02:14:41.661Z,0.0
2019-02-10T02:15:41.161Z,0.0
2019-02-10T02:16:40.967Z,0.0
2019-02-10T02:17:41.111Z,0.0
2019-02-10T02:18:41.110Z,0.0
2019-02-10T02:19:41.193Z,0.0
2019-02-10T02:20:42.116Z,0.0
2019-02-10T02:21:41.098Z,0.0
2019-02-10T02:22:41.385Z,0.0
2019-02-10T02:23:41.200Z,0.0
2019-02-10T02:24:41.830Z,0.0
2019-02-10T02:25:41.660Z,0.0
2019-02-10T02:26:41.184Z,0.0
2019-02-10T02:27:41.734Z,0.0
2019-02-10T02:28:42.199Z,0.0
2019-02-10T02:29:41.100Z,0.0
2019-02-10T02:30:41.359Z,0.0
2019-02-10T02:31:41.012Z,0.0
2019-02-10T02:32:41.167Z,0.0
2019-02-10T02:33:41.567Z,0.0
2019-02-10T02:34:41.186Z,0.0
2019-02-10T02:35:41.495Z,0.0
2019-02-10T02:36:41.310Z,0.0
2019-02-10T02:37:41.414Z,0.0
2019-02-10T02:38:41.469Z,0.0
2019-02-10T02:39:41.341Z,0.0
2019-02-10T02:40:41.264Z,0.0
2019-02-10T02:41:42.646Z,0.0
2019-02-10T02:42:41.225Z,0.0
2019-02-10T02:43:42.086Z,0.0
2019-02-10T02:44:41.359Z,0.0
2019-02-10T02:45:42.483Z,0.0
2019-02-10T02:46:41.483Z,0.0
2019-02-10T02:47:41.417Z,0.0
2019-02-10T02:48:41.393Z,0.0
2019-02-10T02:49:41.494Z,0.0
2019-02-10T02:50:41.501Z,0.0
2019-02-10T02:51:41.742Z,0.0
2019-02-10T02:52:41.421Z,0.0
2019-02-10T02:53:41.388Z,0.0
2019-02-10T02:54:41.542Z,0.0
2019-02-10T02:55:42.896Z,0.0
2019-02-10T02:56:41.584Z,0.0
2019-02-10T02:57:41.611Z,0.0
2019-02-10T02:58:41.660Z,0.0
2019-02-10T02:59:43.970Z,0.0
2019-02-10T03:00:42.782Z,0.0
2019-02-10T03:01:41.439Z,0.0
2019-02-10T03:02:41.430Z,0.0
2019-02-10T03:03:41.548Z,0.0
2019-02-10T03:04:42.086Z,0.0
2019-02-10T03:05:41.557Z,0.0
2019-02-10T03:06:41.671Z,0.0
2019-02-10T03:07:41.828Z,0.0
2019-02-10T03:08:44.063Z,0.0
2019-02-10T03:09:56.467Z,0.0
2019-02-10T03:10:41.540Z,0.0
2019-02-10T03:11:41.486Z,0.0
2019-02-10T03:12:41.620Z,0.0
2019-02-10T03:13:41.583Z,0.0
2019-02-10T03:14:41.728Z,0.0
2019-02-10T03:15:41.859Z,0.0
2019-02-10T03:16:41.609Z,0.2
2019-02-10T03:17:41.594Z,0.2
2019-02-10T03:18:42.219Z,0.0
2019-02-10T03:19:41.971Z,0.0
2019-02-10T03:20:41.738Z,0.0
2019-02-10T03:21:41.847Z,0.2
2019-02-10T03:22:41.683Z,0.2
2019-02-10T03:23:41.635Z,0.0
2019-02-10T03:24:41.610Z,0.0
2019-02-10T03:25:41.729Z,0.0
2019-02-10T03:26:41.934Z,0.0
2019-02-10T03:27:42.414Z,0.0
2019-02-10T03:28:41.776Z,0.0
2019-02-10T03:29:42.785Z,0.0
2019-02-10T03:30:41.699Z,0.0
2019-02-10T03:31:41.684Z,0.0
2019-02-10T03:32:41.620Z,0.0
2019-02-10T03:33:41.599Z,0.0
2019-02-10T03:34:41.633Z,0.0
2019-02-10T03:35:42.262Z,0.0
2019-02-10T03:36:42.314Z,0.0
2019-02-10T03:37:41.635Z,0.0
2019-02-10T03:38:41.713Z,0.0
2019-02-10T03:39:42.847Z,0.0
2019-02-10T03:40:41.646Z,0.0
2019-02-10T03:41:42.392Z,0.0
2019-02-10T03:42:41.677Z,0.0
2019-02-10T03:43:41.680Z,0.0
2019-02-10T03:44:41.582Z,0.0
2019-02-10T03:45:41.683Z,0.0
2019-02-10T03:46:41.867Z,0.0
2019-02-10T03:47:41.893Z,0.0
2019-02-10T03:48:41.799Z,0.0
2019-02-10T03:49:42.501Z,0.0
2019-02-10T03:50:41.792Z,0.0
2019-02-10T03:51:41.727Z,0.2
2019-02-10T03:52:41.910Z,0.2
2019-02-10T03:53:41.659Z,0.2
2019-02-10T03:54:41.681Z,0.0
2019-02-10T03:55:41.667Z,0.0
2019-02-10T03:56:41.744Z,0.0
2019-02-10T03:57:41.821Z,0.0
2019-02-10T03:58:42.069Z,0.0
2019-02-10T03:59:41.807Z,0.0
2019-02-10T04:00:41.821Z,0.0
2019-02-10T04:01:41.824Z,0.0
2019-02-10T04:02:41.847Z,0.0
2019-02-10T04:03:41.790Z,0.0
2019-02-10T04:04:41.921Z,0.0
2019-02-10T04:05:42.643Z,0.0
2019-02-10T04:06:41.589Z,0.0
2019-02-10T04:07:41.799Z,0.0
2019-02-10T04:08:41.845Z,0.0
2019-02-10T04:09:43.053Z,0.0
2019-02-10T04:10:41.682Z,0.0
2019-02-10T04:11:41.740Z,0.0
2019-02-10T04:12:41.734Z,0.0
2019-02-10T04:13:41.723Z,0.0
2019-02-10T04:14:41.872Z,0.0
2019-02-10T04:15:41.568Z,0.0
2019-02-10T04:16:42.506Z,0.0
2019-02-10T04:17:41.530Z,0.0
2019-02-10T04:18:41.862Z,0.0
2019-02-10T04:19:41.579Z,0.0
2019-02-10T04:20:42.165Z,0.0
2019-02-10T04:21:41.611Z,0.0
2019-02-10T04:22:41.909Z,0.0
2019-02-10T04:23:41.710Z,0.0
2019-02-10T04:24:41.745Z,0.0
2019-02-10T04:25:41.827Z,0.0
2019-02-10T04:26:42.571Z,0.0
2019-02-10T04:27:41.967Z,0.0
2019-02-10T04:28:41.545Z,0.0
2019-02-10T04:29:42.537Z,0.0
2019-02-10T04:30:41.969Z,0.0
2019-02-10T04:31:42.203Z,0.0
2019-02-10T04:32:41.534Z,0.2
2019-02-10T04:33:41.872Z,0.2
2019-02-10T04:34:41.586Z,0.0
2019-02-10T04:35:41.474Z,0.0
2019-02-10T04:36:41.789Z,0.0
2019-02-10T04:37:45.524Z,0.2
2019-02-10T04:38:41.538Z,0.2
2019-02-10T04:39:41.999Z,0.0
2019-02-10T04:40:43.751Z,0.0
2019-02-10T04:41:41.627Z,0.0
2019-02-10T04:42:41.474Z,0.0
2019-02-10T04:43:42.709Z,0.0
2019-02-10T04:44:41.532Z,0.0
2019-02-10T04:45:41.502Z,0.0
2019-02-10T04:46:41.603Z,0.0
2019-02-10T04:47:41.798Z,0.0
2019-02-10T04:48:41.522Z,0.0
2019-02-10T04:49:42.292Z,0.0
2019-02-10T04:50:41.693Z,0.0
2019-02-10T04:51:42.300Z,0.0
2019-02-10T04:52:41.569Z,0.0
2019-02-10T04:53:41.503Z,0.0
2019-02-10T04:54:41.419Z,0.0
2019-02-10T04:55:41.998Z,0.0
2019-02-10T04:56:41.730Z,0.0
2019-02-10T04:57:41.760Z,0.0
2019-02-10T04:58:41.712Z,0.0
2019-02-10T04:59:41.725Z,0.0
2019-02-10T05:00:42.010Z,0.2
2019-02-10T05:01:42.328Z,0.2
2019-02-10T05:02:41.593Z,0.0
2019-02-10T05:03:42.103Z,0.0
2019-02-10T05:04:41.711Z,0.0
2019-02-10T05:05:41.531Z,0.0
2019-02-10T05:06:41.803Z,0.0
2019-02-10T05:07:41.605Z,0.0
2019-02-10T05:08:42.432Z,0.0
2019-02-10T05:09:41.920Z,0.0
2019-02-10T05:10:41.486Z,0.0
2019-02-10T05:11:42.545Z,0.0
2019-02-10T05:12:42.369Z,0.0
2019-02-10T05:13:42.435Z,1.1
2019-02-10T05:14:41.629Z,1.1
2019-02-10T05:15:41.653Z,0.2
2019-02-10T05:16:41.559Z,0.2
2019-02-10T05:17:42.200Z,0.2
2019-02-10T05:18:41.500Z,0.0
2019-02-10T05:19:41.924Z,0.0
2019-02-10T05:20:42.024Z,0.5
2019-02-10T05:21:42.124Z,0.5
2019-02-10T05:22:41.559Z,0.5
2019-02-10T05:23:41.960Z,0.0
2019-02-10T05:28:00.007Z,0.0
2019-02-10T05:28:10.148Z,0.0
2019-02-10T05:29:09.101Z,0.2
2019-02-10T05:30:11.184Z,0.2
2019-02-10T05:31:09.166Z,0.2
2019-02-10T05:32:09.063Z,0.2
2019-02-10T05:33:09.242Z,1.1
2019-02-10T05:34:09.065Z,1.1
2019-02-10T05:35:09.227Z,1.1
2019-02-10T05:36:08.948Z,0.0
2019-02-10T05:37:10.107Z,0.0
2019-02-10T05:38:09.071Z,0.0
2019-02-10T05:39:09.009Z,0.0
2019-02-10T05:40:09.399Z,0.0
2019-02-10T05:41:09.019Z,0.0
2019-02-10T05:42:09.055Z,0.0
2019-02-10T05:43:09.397Z,0.0
2019-02-10T05:44:09.071Z,0.0
2019-02-10T05:45:09.117Z,0.0
2019-02-10T05:46:09.110Z,0.0
2019-02-10T05:47:09.574Z,0.0
2019-02-10T05:48:09.306Z,0.0
2019-02-10T05:49:09.132Z,0.5
2019-02-10T05:50:09.190Z,0.5
2019-02-10T05:51:10.437Z,0.2
2019-02-10T05:52:09.833Z,0.2
2019-02-10T05:53:09.092Z,0.2
2019-02-10T05:54:09.111Z,0.5
2019-02-10T05:55:09.075Z,0.5
2019-02-10T05:56:09.646Z,0.8
2019-02-10T05:57:09.120Z,0.8
2019-02-10T05:58:09.065Z,0.8
2019-02-10T05:59:09.162Z,1.9
2019-02-10T06:00:10.210Z,1.9
2019-02-10T06:01:09.969Z,0.0
2019-02-10T06:02:09.187Z,0.0
2019-02-10T06:03:09.946Z,0.0
2019-02-10T06:04:10.490Z,0.0
2019-02-10T06:05:09.384Z,0.0
2019-02-10T06:06:09.741Z,0.0
2019-02-10T06:07:09.186Z,0.0
2019-02-10T06:08:12.714Z,0.0
2019-02-10T06:09:09.021Z,0.0
2019-02-10T06:10:09.829Z,0.0
2019-02-10T06:11:09.350Z,0.0
2019-02-10T06:12:10.335Z,0.0
2019-02-10T06:13:09.030Z,0.0
2019-02-10T06:14:09.135Z,0.2
2019-02-10T06:15:09.119Z,0.2
2019-02-10T06:16:09.370Z,0.2
2019-02-10T06:17:09.068Z,0.2
2019-02-10T06:18:09.357Z,0.2
2019-02-10T06:19:09.413Z,0.2
2019-02-10T06:20:09.713Z,0.2
2019-02-10T06:21:10.447Z,0.2
2019-02-10T06:22:09.217Z,0.8
2019-02-10T06:23:09.207Z,0.8
2019-02-10T06:24:09.129Z,0.0
2019-02-10T06:25:09.908Z,0.0
2019-02-10T06:26:10.070Z,0.0
2019-02-10T06:27:09.126Z,0.0
2019-02-10T06:28:09.114Z,0.0
2019-02-10T06:29:09.099Z,0.0
2019-02-10T06:30:09.453Z,0.0
2019-02-10T06:31:09.165Z,0.0
2019-02-10T06:32:09.224Z,0.0
2019-02-10T06:33:09.388Z,0.0
2019-02-10T06:34:09.214Z,0.0
2019-02-10T06:35:09.455Z,0.0
2019-02-10T06:36:09.164Z,0.0
2019-02-10T06:37:10.740Z,0.5
2019-02-10T06:38:09.691Z,0.5
2019-02-10T06:39:09.118Z,0.2
2019-02-10T06:40:09.535Z,0.2
2019-02-10T06:41:09.535Z,0.2
2019-02-10T06:42:09.395Z,0.2
2019-02-10T06:43:09.225Z,0.2
2019-02-10T06:44:09.803Z,0.2
2019-02-10T06:45:09.227Z,0.2
2019-02-10T06:46:09.416Z,0.2
2019-02-10T06:47:09.866Z,0.0
2019-02-10T06:48:09.230Z,0.0
2019-02-10T06:49:09.378Z,0.0
2019-02-10T06:50:09.391Z,0.0
2019-02-10T06:51:09.226Z,0.0
2019-02-10T06:52:13.061Z,0.0
2019-02-10T06:53:09.458Z,0.0
2019-02-10T06:54:10.319Z,0.0
2019-02-10T06:55:10.564Z,0.2
2019-02-10T06:56:09.559Z,0.2
2019-02-10T06:57:10.776Z,0.5
2019-02-10T06:58:11.559Z,0.5
2019-02-10T06:59:09.823Z,0.5
2019-02-10T07:00:09.716Z,0.2
2019-02-10T07:01:09.253Z,0.2
2019-02-10T07:02:11.888Z,0.0
2019-02-10T07:03:09.208Z,0.0
2019-02-10T07:05:02.546Z,0.0
2019-02-10T07:05:10.496Z,0.0
2019-02-10T07:06:11.629Z,1.1
2019-02-10T07:07:17.334Z,0.2
2019-02-10T07:08:13.677Z,0.2
2019-02-10T07:09:11.496Z,0.2
2019-02-10T07:10:10.939Z,0.8
2019-02-10T07:11:12.752Z,0.8
2019-02-10T07:12:11.348Z,0.0
2019-02-10T07:13:12.594Z,0.0
2019-02-10T07:14:13.229Z,0.0
2019-02-10T07:15:12.759Z,1.1
2019-02-10T07:16:13.668Z,1.1
2019-02-10T07:17:13.571Z,1.1
2019-02-10T07:18:14.538Z,0.5
2019-02-10T07:19:11.565Z,0.5
2019-02-10T07:20:11.558Z,0.0
2019-02-10T07:21:12.731Z,0.0
2019-02-10T07:22:16.459Z,0.0
2019-02-10T07:23:10.579Z,0.0
2019-02-10T07:24:15.225Z,0.0
2019-02-10T07:25:12.997Z,1.1
2019-02-10T07:26:11.486Z,1.1
2019-02-10T07:27:11.381Z,1.1
2019-02-10T07:28:11.724Z,0.0
2019-02-10T07:29:11.799Z,0.0
2019-02-10T07:30:14.037Z,1.1
2019-02-10T07:31:15.353Z,1.1
2019-02-10T07:32:12.091Z,1.1
2019-02-10T07:33:10.598Z,1.1
2019-02-10T07:34:11.449Z,1.1
2019-02-10T07:35:11.740Z,0.5
2019-02-10T07:36:10.879Z,0.5
2019-02-10T07:37:11.923Z,0.5
2019-02-10T07:38:14.323Z,0.5
2019-02-10T07:39:13.220Z,0.5
2019-02-10T07:40:12.837Z,0.0
2019-02-10T07:41:12.584Z,0.0
2019-02-10T07:42:12.524Z,0.0
2019-02-10T07:43:11.557Z,0.0
2019-02-10T07:44:10.828Z,0.0
2019-02-10T07:45:11.639Z,0.0
2019-02-10T07:46:12.276Z,0.0
2019-02-10T07:47:11.497Z,0.0
2019-02-10T07:48:11.514Z,0.5
2019-02-10T07:49:11.652Z,0.5
2019-02-10T07:50:14.278Z,0.5
2019-02-10T07:51:12.743Z,0.8
2019-02-10T07:52:11.397Z,0.8
2019-02-10T07:53:12.316Z,0.0
2019-02-10T07:54:10.834Z,0.0
2019-02-10T07:55:11.583Z,0.0
2019-02-10T07:56:11.367Z,0.0
2019-02-10T07:57:14.120Z,0.0
2019-02-10T07:58:12.994Z,0.8
2019-02-10T07:59:11.387Z,0.8
2019-02-10T08:00:10.793Z,0.8
2019-02-10T08:01:11.683Z,0.5
2019-02-10T08:02:12.379Z,0.5
2019-02-10T08:03:10.585Z,0.2
2019-02-10T08:04:12.647Z,0.2
2019-02-10T08:05:10.554Z,0.2
2019-02-10T08:06:10.897Z,0.0
2019-02-10T08:07:10.557Z,0.0
2019-02-10T08:08:12.247Z,0.0
2019-02-10T08:09:13.733Z,0.0
2019-02-10T08:10:12.494Z,0.0
2019-02-10T08:11:10.669Z,0.0
2019-02-10T08:12:11.618Z,0.0
2019-02-10T08:13:10.622Z,0.0
2019-02-10T08:14:10.621Z,0.0
2019-02-10T08:15:10.954Z,0.0
2019-02-10T08:16:12.457Z,0.0
2019-02-10T08:17:10.839Z,0.0
2019-02-10T08:18:12.596Z,0.0
2019-02-10T08:19:11.040Z,0.5
2019-02-10T08:20:11.043Z,0.5
2019-02-10T08:21:11.189Z,1.1
2019-02-10T08:22:12.631Z,1.1
2019-02-10T08:23:13.657Z,1.1
2019-02-10T08:24:12.306Z,0.2
2019-02-10T08:25:11.296Z,0.2
2019-02-10T08:26:12.114Z,0.0
2019-02-10T08:27:11.513Z,0.0
2019-02-10T08:28:11.484Z,0.0
2019-02-10T08:29:11.977Z,0.5
2019-02-10T08:30:13.548Z,0.5
2019-02-10T08:31:11.639Z,0.8
2019-02-10T08:32:11.754Z,0.8
2019-02-10T08:33:13.138Z,0.8
2019-02-10T08:34:11.342Z,0.5
2019-02-10T08:35:12.125Z,0.5
2019-02-10T08:36:12.618Z,0.2
2019-02-10T08:37:14.331Z,0.2
2019-02-10T08:38:13.935Z,0.2
2019-02-10T08:39:12.271Z,1.1
2019-02-10T08:40:10.597Z,1.1
2019-02-10T08:41:10.621Z,0.8
2019-02-10T08:42:12.171Z,0.8
2019-02-10T08:43:10.641Z,0.8
2019-02-10T08:44:10.684Z,0.5
2019-02-10T08:45:10.642Z,0.5
2019-02-10T08:46:10.678Z,0.5
2019-02-10T08:47:10.650Z,0.0
2019-02-10T08:48:11.736Z,0.0
2019-02-10T08:49:12.415Z,0.2
2019-02-10T08:50:13.095Z,0.2
2019-02-10T08:51:12.605Z,0.2
2019-02-10T08:52:13.600Z,1.3
2019-02-10T08:53:10.946Z,1.3
2019-02-10T08:54:11.698Z,1.3
2019-02-10T08:55:12.386Z,1.3
2019-02-10T08:56:12.545Z,1.3
2019-02-10T08:57:11.116Z,0.2
2019-02-10T08:58:10.923Z,0.2
2019-02-10T08:59:11.887Z,0.5
2019-02-10T09:00:11.482Z,0.5
2019-02-10T09:01:11.455Z,0.5
2019-02-10T09:02:11.059Z,1.3
2019-02-10T09:03:11.044Z,1.3
2019-02-10T09:04:12.289Z,0.8
2019-02-10T09:05:12.265Z,0.8
2019-02-10T09:06:10.747Z,0.8
2019-02-10T09:07:10.769Z,2.2
2019-02-10T09:08:10.818Z,2.2
2019-02-10T09:09:11.146Z,0.5
2019-02-10T09:10:11.114Z,0.5
2019-02-10T09:11:10.959Z,0.5
2019-02-10T09:12:12.940Z,0.5
2019-02-10T09:13:12.213Z,0.5
2019-02-10T09:14:12.665Z,0.5
2019-02-10T09:15:12.368Z,0.5
2019-02-10T09:16:11.922Z,0.5
2019-02-10T09:17:13.201Z,0.0
2019-02-10T09:18:12.420Z,0.0
2019-02-10T09:19:11.936Z,0.0
2019-02-10T09:20:11.543Z,1.9
2019-02-10T09:21:11.661Z,1.9
2019-02-10T09:22:11.910Z,0.2
2019-02-10T09:23:11.551Z,0.2
2019-02-10T09:24:11.439Z,0.2
2019-02-10T09:25:12.006Z,0.0
2019-02-10T09:26:12.180Z,0.0
2019-02-10T09:27:13.463Z,0.0
2019-02-10T09:28:11.415Z,0.0
2019-02-10T09:29:12.632Z,0.0
2019-02-10T09:30:12.285Z,0.5
2019-02-10T09:31:12.524Z,0.5
2019-02-10T09:32:10.848Z,0.0
2019-02-10T09:33:11.295Z,0.0
2019-02-10T09:34:11.213Z,0.0
2019-02-10T09:35:11.745Z,0.0
2019-02-10T09:36:11.649Z,0.0
2019-02-10T09:37:11.554Z,0.8
2019-02-10T09:38:11.357Z,0.8
2019-02-10T09:39:11.264Z,0.8
2019-02-10T09:40:13.428Z,0.5
2019-02-10T09:41:11.850Z,0.5
2019-02-10T09:42:16.313Z,0.2
2019-02-10T09:43:14.158Z,0.2
2019-02-10T09:44:14.093Z,0.2
2019-02-10T09:45:12.281Z,1.3
2019-02-10T09:46:13.487Z,1.3
2019-02-10T09:47:13.402Z,1.3
2019-02-10T09:48:12.274Z,1.9
2019-02-10T09:49:14.121Z,1.9
2019-02-10T09:50:11.881Z,2.2
2019-02-10T09:51:12.401Z,2.2
2019-02-10T09:52:13.364Z,2.2
2019-02-10T09:53:22.449Z,0.5
2019-02-10T09:54:11.037Z,0.5
2019-02-10T09:55:12.844Z,0.0
2019-02-10T09:56:12.189Z,0.0
2019-02-10T09:57:10.968Z,0.0
2019-02-10T09:58:10.842Z,0.0
2019-02-10T09:59:13.572Z,0.0
2019-02-10T10:00:11.807Z,0.0
2019-02-10T10:01:11.571Z,0.0
2019-02-10T10:02:10.932Z,0.0
2019-02-10T10:03:11.620Z,0.8
2019-02-10T10:04:11.499Z,0.8
2019-02-10T10:05:11.210Z,1.1
2019-02-10T10:06:12.161Z,1.1
2019-02-10T10:07:15.391Z,1.1
2019-02-10T10:08:11.742Z,1.1
2019-02-10T10:09:18.784Z,1.1
2019-02-10T10:10:10.911Z,0.2
2019-02-10T10:11:13.159Z,0.2
2019-02-10T10:12:11.424Z,0.2
2019-02-10T10:13:11.688Z,0.0
2019-02-10T10:14:12.020Z,0.0
2019-02-10T10:15:10.959Z,0.0
2019-02-10T10:16:11.644Z,0.0
2019-02-10T10:17:11.377Z,0.0
2019-02-10T10:18:13.785Z,0.0
2019-02-10T10:19:12.543Z,0.0
2019-02-10T10:20:27.222Z,0.0
2019-02-10T10:21:10.943Z,0.0
2019-02-10T10:22:11.876Z,0.0
2019-02-10T10:23:10.853Z,0.0
2019-02-10T10:24:11.143Z,0.0
2019-02-10T10:25:11.866Z,0.0
2019-02-10T10:26:12.548Z,0.0
2019-02-10T10:27:11.316Z,0.0
2019-02-10T10:28:11.442Z,0.0
2019-02-10T10:29:11.598Z,0.0
2019-02-10T10:30:12.968Z,0.0
2019-02-10T10:31:11.610Z,0.2
2019-02-10T10:32:12.854Z,0.2
2019-02-10T10:33:11.314Z,0.0
2019-02-10T10:34:11.188Z,0.0
2019-02-10T10:35:10.980Z,0.0
2019-02-10T10:36:13.004Z,0.8
2019-02-10T10:37:11.811Z,0.8
2019-02-10T10:38:11.510Z,1.3
2019-02-10T10:39:14.180Z,1.3
2019-02-10T10:40:12.592Z,1.3
2019-02-10T10:41:13.311Z,0.0
2019-02-10T10:42:13.030Z,0.0
2019-02-10T10:43:11.397Z,2.5
2019-02-10T10:44:12.990Z,2.5
2019-02-10T10:45:13.105Z,2.5
2019-02-10T10:46:16.220Z,1.3
2019-02-10T10:47:16.056Z,1.3
2019-02-10T10:48:11.141Z,1.3
2019-02-10T10:49:11.091Z,0.5
2019-02-10T10:50:11.666Z,0.5
2019-02-10T10:51:11.088Z,0.8
2019-02-10T10:52:11.883Z,0.8
2019-02-10T10:53:11.280Z,0.8
2019-02-10T10:54:11.088Z,1.6
2019-02-10T10:55:11.089Z,1.6
2019-02-10T10:56:11.696Z,1.6
2019-02-10T10:57:11.095Z,1.6
2019-02-10T10:58:11.401Z,1.6
2019-02-10T10:59:11.168Z,0.2
2019-02-10T11:00:11.269Z,0.2
2019-02-10T11:01:11.168Z,1.9
2019-02-10T11:02:11.157Z,1.9
2019-02-10T11:03:11.422Z,1.9
2019-02-10T11:04:11.225Z,0.2
2019-02-10T11:05:11.087Z,0.2
2019-02-10T11:06:11.842Z,0.0
2019-02-10T11:07:11.273Z,0.0
2019-02-10T11:08:11.535Z,0.0
2019-02-10T11:09:11.837Z,0.0
2019-02-10T11:10:12.675Z,0.0
2019-02-10T11:11:11.284Z,1.3
2019-02-10T11:12:11.211Z,1.3
2019-02-10T11:13:11.165Z,1.3
2019-02-10T11:14:11.142Z,0.0
2019-02-10T11:15:11.105Z,0.0
2019-02-10T11:16:11.577Z,1.6
2019-02-10T11:17:11.201Z,1.6
2019-02-10T11:18:12.124Z,1.6
2019-02-10T11:19:11.216Z,0.8
2019-02-10T11:20:11.035Z,0.8
2019-02-10T11:21:11.024Z,0.8
2019-02-10T11:22:11.148Z,1.1
2019-02-10T11:23:11.914Z,1.1
2019-02-10T11:24:11.413Z,1.9
2019-02-10T11:25:11.225Z,1.9
2019-02-10T11:26:11.118Z,1.9
2019-02-10T11:27:10.940Z,1.6
2019-02-10T11:28:12.237Z,1.6
2019-02-10T11:29:11.351Z,2.5
2019-02-10T11:30:12.103Z,2.5
2019-02-10T11:31:11.095Z,2.5
2019-02-10T11:32:11.872Z,4.7
2019-02-10T11:33:11.034Z,4.7
2019-02-10T11:34:11.139Z,2.2
2019-02-10T11:35:11.282Z,2.2
2019-02-10T11:36:11.641Z,2.2
2019-02-10T11:37:11.057Z,2.2
2019-02-10T11:38:11.151Z,2.2
2019-02-10T11:39:11.192Z,2.5
2019-02-10T11:40:12.015Z,2.5
2019-02-10T11:41:11.252Z,2.5
2019-02-10T11:42:11.501Z,4.1
2019-02-10T11:43:11.182Z,4.1
2019-02-10T11:44:11.183Z,3.3
2019-02-10T11:45:11.180Z,3.3
2019-02-10T11:46:11.279Z,3.3
2019-02-10T11:47:11.375Z,2.5
2019-02-10T11:48:11.151Z,2.5
2019-02-10T11:49:10.998Z,2.5
2019-02-10T11:50:11.976Z,5.0
2019-02-10T11:51:11.308Z,5.0
2019-02-10T11:52:11.780Z,3.6
2019-02-10T11:53:11.289Z,3.6
2019-02-10T11:54:11.046Z,3.6
2019-02-10T11:55:11.061Z,1.6
2019-02-10T11:56:11.211Z,1.6
2019-02-10T11:57:11.603Z,5.2
2019-02-10T11:58:13.322Z,5.2
2019-02-10T11:59:11.408Z,5.2
2019-02-10T12:00:11.659Z,1.3
2019-02-10T12:01:11.165Z,1.3
2019-02-10T12:02:11.483Z,1.6
2019-02-10T12:03:11.161Z,1.6
2019-02-10T12:04:11.101Z,1.6
2019-02-10T12:05:11.355Z,1.3
2019-02-10T12:06:11.413Z,1.3
2019-02-10T12:07:11.821Z,2.7
2019-02-10T12:08:11.327Z,2.7
2019-02-10T12:09:11.268Z,2.7
2019-02-10T12:10:11.951Z,2.7
2019-02-10T12:11:11.263Z,2.7
2019-02-10T12:12:11.082Z,5.0
2019-02-10T12:13:10.978Z,5.0
2019-02-10T12:14:12.337Z,5.0
2019-02-10T12:15:12.096Z,4.4
2019-02-10T12:16:11.679Z,4.4
2019-02-10T12:17:11.343Z,4.4
2019-02-10T12:18:12.218Z,4.4
2019-02-10T12:19:12.059Z,4.4
2019-02-10T12:20:12.238Z,5.5
2019-02-10T12:21:11.311Z,5.5
2019-02-10T12:22:12.941Z,5.5
2019-02-10T12:23:11.339Z,2.5
2019-02-10T12:24:11.337Z,2.5
2019-02-10T12:25:11.180Z,3.0
2019-02-10T12:26:11.722Z,3.0
2019-02-10T12:27:11.555Z,3.0
2019-02-10T12:28:11.495Z,3.6
2019-02-10T12:29:11.431Z,3.6
2019-02-10T12:30:12.553Z,3.6
2019-02-10T12:31:12.205Z,3.6
2019-02-10T12:32:11.977Z,3.6
2019-02-10T12:33:11.613Z,4.7
2019-02-10T12:34:11.590Z,4.7
2019-02-10T12:35:11.897Z,3.6
2019-02-10T12:36:11.471Z,3.6
2019-02-10T12:37:12.925Z,3.6
2019-02-10T12:38:11.323Z,4.1
2019-02-10T12:39:11.449Z,4.1
2019-02-10T12:40:12.099Z,4.1
2019-02-10T12:41:12.129Z,4.1
2019-02-10T12:42:27.675Z,4.1
2019-02-10T12:43:11.273Z,3.3
2019-02-10T12:44:11.203Z,3.3
2019-02-10T12:45:11.217Z,5.8
2019-02-10T12:46:11.213Z,5.8
2019-02-10T12:47:11.183Z,5.8
2019-02-10T12:48:11.319Z,4.1
2019-02-10T12:49:11.053Z,4.1
2019-02-10T12:50:11.615Z,4.1
2019-02-10T12:51:11.333Z,5.2
2019-02-10T12:52:11.978Z,5.2
2019-02-10T12:53:11.200Z,5.0
2019-02-10T12:54:11.424Z,5.0
2019-02-10T12:55:11.300Z,5.0
2019-02-10T12:56:12.547Z,5.8
2019-02-10T12:57:11.253Z,5.8
2019-02-10T12:58:12.724Z,5.8
2019-02-10T12:59:12.570Z,5.8
2019-02-10T13:00:11.435Z,5.8
2019-02-10T13:01:11.203Z,4.7
2019-02-10T13:02:11.258Z,4.7
2019-02-10T13:03:11.413Z,3.8
2019-02-10T13:04:11.487Z,3.8
2019-02-10T13:05:11.373Z,3.8
2019-02-10T13:06:11.551Z,5.8
2019-02-10T13:07:11.794Z,5.8
2019-02-10T13:08:11.577Z,5.8
2019-02-10T13:09:12.074Z,5.8
2019-02-10T13:10:11.388Z,5.8
2019-02-10T13:11:11.383Z,5.0
2019-02-10T13:12:11.458Z,5.0
2019-02-10T13:13:18.030Z,5.2
2019-02-10T13:14:12.575Z,5.2
2019-02-10T13:15:12.798Z,5.2
2019-02-10T13:16:11.508Z,4.1
2019-02-10T13:17:11.475Z,4.1
2019-02-10T13:18:11.554Z,4.1
2019-02-10T13:19:11.758Z,4.1
2019-02-10T13:20:11.273Z,4.1
2019-02-10T13:21:12.200Z,6.3
2019-02-10T13:22:11.269Z,6.3
2019-02-10T13:23:11.768Z,6.3
2019-02-10T13:24:11.842Z,4.4
2019-02-10T13:25:11.599Z,4.4
2019-02-10T13:26:11.560Z,37.2
2019-02-10T13:27:11.551Z,37.2
2019-02-10T13:28:11.846Z,37.2
2019-02-10T13:29:12.690Z,10.2
2019-02-10T13:30:11.558Z,10.2
2019-02-10T13:31:11.706Z,53.0
2019-02-10T13:32:12.252Z,53.0
2019-02-10T13:33:11.554Z,53.0
2019-02-10T13:34:11.787Z,20.5
2019-02-10T13:35:11.647Z,20.5
2019-02-10T13:36:11.386Z,85.0
2019-02-10T13:37:11.810Z,85.0
2019-02-10T13:38:11.647Z,85.0
2019-02-10T13:39:11.391Z,85.0
2019-02-10T13:40:16.483Z,85.0
2019-02-10T13:41:11.456Z,14.1
2019-02-10T13:42:12.013Z,14.1
2019-02-10T13:43:11.732Z,14.1
2019-02-10T13:44:11.735Z,14.7
2019-02-10T13:45:11.723Z,14.7
2019-02-10T13:46:11.777Z,13.6
2019-02-10T13:47:11.848Z,13.6
2019-02-10T13:48:11.401Z,13.6